sensor_id;sensor_type;location;lat;lon;timestamp;pressure;altitude;pressure_sealevel;temperature;humidity
39141;BME280;24875;48.436;10.298;2024-01-15T00:00:03;95160.13;;;-1.35;100.00
39141;BME280;24875;48.436;10.298;2024-01-15T00:02:30;95166.75;;;-1.32;100.00
39141;BME280;24875;48.436;10.298;2024-01-15T00:04:57;95163.00;;;-1.10;100.00
39141;BME280;24875;48.436;10.298;2024-01-15T00:07:24;95155.38;;;-1.21;100.00
39141;BME280;24875;48.436;10.298;2024-01-15T00:09:50;95148.47;;;-1.11;100.00
39141;BME280;24875;48.436;10.298;2024-01-15T00:12:17;95139.22;;;-1.04;100.00
39141;BME280;24875;48.436;10.298;2024-01-15T00:14:43;95136.25;;;-0.99;100.00
39141;BME280;24875;48.436;10.298;2024-01-15T00:17:10;95140.03;;;-0.84;100.00
39141;BME280;24875;48.436;10.298;2024-01-15T00:19:36;95141.00;;;-0.95;100.00
39141;BME280;24875;48.436;10.298;2024-01-15T00:22:04;95142.47;;;-0.83;100.00
39141;BME280;24875;48.436;10.298;2024-01-15T00:24:31;95146.16;;;-1.04;100.00
39141;BME280;24875;48.436;10.298;2024-01-15T00:26:57;95139.59;;;-1.18;100.00
39141;BME280;24875;48.436;10.298;2024-01-15T00:29:24;95136.06;;;-1.07;100.00
39141;BME280;24875;48.436;10.298;2024-01-15T00:31:50;95145.59;;;-1.08;100.00
39141;BME280;24875;48.436;10.298;2024-01-15T00:34:17;95135.81;;;-0.95;100.00
39141;BME280;24875;48.436;10.298;2024-01-15T00:36:43;95144.81;;;-0.80;100.00
39141;BME280;24875;48.436;10.298;2024-01-15T00:39:11;95144.25;;;-0.74;100.00
39141;BME280;24875;48.436;10.298;2024-01-15T00:41:38;95142.63;;;-0.75;100.00
39141;BME280;24875;48.436;10.298;2024-01-15T00:44:04;95124.81;;;-0.68;100.00
39141;BME280;24875;48.436;10.298;2024-01-15T00:46:32;95127.78;;;-0.73;100.00
39141;BME280;24875;48.436;10.298;2024-01-15T00:48:58;95133.94;;;-0.64;100.00
39141;BME280;24875;48.436;10.298;2024-01-15T00:51:25;95129.31;;;-0.61;100.00
39141;BME280;24875;48.436;10.298;2024-01-15T00:53:51;95125.75;;;-0.60;100.00
39141;BME280;24875;48.436;10.298;2024-01-15T00:56:19;95128.75;;;-0.46;100.00
39141;BME280;24875;48.436;10.298;2024-01-15T00:58:46;95123.03;;;-0.49;100.00
39141;BME280;24875;48.436;10.298;2024-01-15T01:01:12;95127.75;;;-0.45;100.00
39141;BME280;24875;48.436;10.298;2024-01-15T01:03:39;95129.25;;;-0.42;100.00
39141;BME280;24875;48.436;10.298;2024-01-15T01:06:05;95134.84;;;-0.37;100.00
39141;BME280;24875;48.436;10.298;2024-01-15T01:08:32;95133.09;;;-0.37;100.00
39141;BME280;24875;48.436;10.298;2024-01-15T01:10:58;95126.28;;;-0.38;100.00
39141;BME280;24875;48.436;10.298;2024-01-15T01:13:26;95121.63;;;-0.25;100.00
39141;BME280;24875;48.436;10.298;2024-01-15T01:15:52;95140.31;;;-0.40;100.00
39141;BME280;24875;48.436;10.298;2024-01-15T01:18:19;95134.59;;;-0.34;100.00
39141;BME280;24875;48.436;10.298;2024-01-15T01:20:45;95142.47;;;-0.26;100.00
39141;BME280;24875;48.436;10.298;2024-01-15T01:23:12;95148.19;;;-0.23;100.00
39141;BME280;24875;48.436;10.298;2024-01-15T01:25:38;95151.56;;;-0.22;100.00
39141;BME280;24875;48.436;10.298;2024-01-15T01:28:05;95146.13;;;-0.19;100.00
39141;BME280;24875;48.436;10.298;2024-01-15T01:30:33;95141.59;;;-0.08;100.00
39141;BME280;24875;48.436;10.298;2024-01-15T01:32:59;95143.00;;;-0.32;100.00
39141;BME280;24875;48.436;10.298;2024-01-15T01:35:26;95138.66;;;-0.41;100.00
39141;BME280;24875;48.436;10.298;2024-01-15T01:37:52;95130.09;;;-0.51;100.00
39141;BME280;24875;48.436;10.298;2024-01-15T01:40:19;95127.75;;;-0.45;100.00
39141;BME280;24875;48.436;10.298;2024-01-15T01:42:45;95127.91;;;-0.37;100.00
39141;BME280;24875;48.436;10.298;2024-01-15T01:45:12;95118.25;;;-0.54;100.00
39141;BME280;24875;48.436;10.298;2024-01-15T01:47:40;95115.88;;;-0.19;100.00
39141;BME280;24875;48.436;10.298;2024-01-15T01:50:07;95120.94;;;-0.36;100.00
39141;BME280;24875;48.436;10.298;2024-01-15T01:52:34;95117.69;;;-0.38;100.00
39141;BME280;24875;48.436;10.298;2024-01-15T01:55:02;95120.94;;;-0.36;100.00
39141;BME280;24875;48.436;10.298;2024-01-15T01:57:30;95116.47;;;-0.34;100.00
39141;BME280;24875;48.436;10.298;2024-01-15T01:59:58;95113.72;;;-0.42;100.00
39141;BME280;24875;48.436;10.298;2024-01-15T02:02:25;95117.31;;;-0.43;100.00
39141;BME280;24875;48.436;10.298;2024-01-15T02:04:53;95115.22;;;-0.40;100.00
39141;BME280;24875;48.436;10.298;2024-01-15T02:07:20;95114.31;;;-0.48;100.00
39141;BME280;24875;48.436;10.298;2024-01-15T02:09:46;95120.28;;;-0.48;100.00
39141;BME280;24875;48.436;10.298;2024-01-15T02:12:12;95122.63;;;-0.54;100.00
39141;BME280;24875;48.436;10.298;2024-01-15T02:14:39;95120.84;;;-0.54;100.00
39141;BME280;24875;48.436;10.298;2024-01-15T02:17:06;95132.41;;;-0.58;100.00
39141;BME280;24875;48.436;10.298;2024-01-15T02:19:32;95126.97;;;-0.64;100.00
39141;BME280;24875;48.436;10.298;2024-01-15T02:22:00;95112.41;;;-0.74;100.00
39141;BME280;24875;48.436;10.298;2024-01-15T02:24:28;95128.19;;;-0.49;100.00
39141;BME280;24875;48.436;10.298;2024-01-15T02:26:55;95133.09;;;-0.65;100.00
39141;BME280;24875;48.436;10.298;2024-01-15T02:29:22;95140.72;;;-0.54;100.00
39141;BME280;24875;48.436;10.298;2024-01-15T02:31:48;95133.66;;;-0.71;100.00
39141;BME280;24875;48.436;10.298;2024-01-15T02:34:15;95139.91;;;-0.73;100.00
39141;BME280;24875;48.436;10.298;2024-01-15T02:36:41;95133.38;;;-0.87;100.00
39141;BME280;24875;48.436;10.298;2024-01-15T02:39:08;95135.28;;;-0.79;100.00
39141;BME280;24875;48.436;10.298;2024-01-15T02:41:36;95131.19;;;-0.63;100.00
39141;BME280;24875;48.436;10.298;2024-01-15T02:44:02;95130.53;;;-0.74;100.00
39141;BME280;24875;48.436;10.298;2024-01-15T02:46:29;95136.13;;;-0.79;100.00
39141;BME280;24875;48.436;10.298;2024-01-15T02:48:55;95135.28;;;-0.70;100.00
39141;BME280;24875;48.436;10.298;2024-01-15T02:51:22;95135.94;;;-0.87;100.00
39141;BME280;24875;48.436;10.298;2024-01-15T02:53:50;95139.75;;;-0.63;100.00
39141;BME280;24875;48.436;10.298;2024-01-15T02:56:16;95141.94;;;-0.77;100.00
39141;BME280;24875;48.436;10.298;2024-01-15T02:58:44;95147.53;;;-0.72;100.00
39141;BME280;24875;48.436;10.298;2024-01-15T03:01:11;95147.38;;;-0.70;100.00
39141;BME280;24875;48.436;10.298;2024-01-15T03:03:37;95154.34;;;-0.71;100.00
39141;BME280;24875;48.436;10.298;2024-01-15T03:06:04;95145.09;;;-0.73;100.00
39141;BME280;24875;48.436;10.298;2024-01-15T03:08:31;95141.41;;;-0.71;100.00
39141;BME280;24875;48.436;10.298;2024-01-15T03:10:57;95137.59;;;-0.67;100.00
39141;BME280;24875;48.436;10.298;2024-01-15T03:13:24;95138.25;;;-0.65;100.00
39141;BME280;24875;48.436;10.298;2024-01-15T03:15:52;95140.16;;;-0.58;100.00
39141;BME280;24875;48.436;10.298;2024-01-15T03:18:18;95135.41;;;-0.71;100.00
39141;BME280;24875;48.436;10.298;2024-01-15T03:20:45;95139.91;;;-0.73;100.00
39141;BME280;24875;48.436;10.298;2024-01-15T03:23:11;95138.00;;;-0.62;100.00
39141;BME280;24875;48.436;10.298;2024-01-15T03:25:38;95144.53;;;-0.58;100.00
39141;BME280;24875;48.436;10.298;2024-01-15T03:28:05;95140.75;;;-0.63;100.00
39141;BME280;24875;48.436;10.298;2024-01-15T03:30:31;95142.06;;;-0.69;100.00
39141;BME280;24875;48.436;10.298;2024-01-15T03:32:59;95140.72;;;-0.73;100.00
39141;BME280;24875;48.436;10.298;2024-01-15T03:35:26;95137.72;;;-0.78;100.00
39141;BME280;24875;48.436;10.298;2024-01-15T03:37:54;95130.09;;;-0.79;100.00
39141;BME280;24875;48.436;10.298;2024-01-15T03:40:21;95131.59;;;-0.77;100.00
39141;BME280;24875;48.436;10.298;2024-01-15T03:42:47;95132.97;;;-0.73;100.00
39141;BME280;24875;48.436;10.298;2024-01-15T03:45:14;95127.66;;;-0.81;100.00
39141;BME280;24875;48.436;10.298;2024-01-15T03:47:40;95121.66;;;-0.63;100.00
39141;BME280;24875;48.436;10.298;2024-01-15T03:50:09;95126.28;;;-0.57;100.00
39141;BME280;24875;48.436;10.298;2024-01-15T03:52:35;95131.88;;;-0.70;100.00
39141;BME280;24875;48.436;10.298;2024-01-15T03:55:04;95126.97;;;-0.55;100.00
39141;BME280;24875;48.436;10.298;2024-01-15T03:57:31;95129.56;;;-0.55;100.00
39141;BME280;24875;48.436;10.298;2024-01-15T03:59:57;95126.56;;;-0.60;100.00
39141;BME280;24875;48.436;10.298;2024-01-15T04:02:24;95125.31;;;-0.65;100.00
39141;BME280;24875;48.436;10.298;2024-01-15T04:04:50;95124.38;;;-0.64;100.00
39141;BME280;24875;48.436;10.298;2024-01-15T04:07:18;95121.66;;;-0.53;100.00
39141;BME280;24875;48.436;10.298;2024-01-15T04:09:44;95126.31;;;-0.66;100.00
39141;BME280;24875;48.436;10.298;2024-01-15T04:12:11;95123.03;;;-0.59;100.00
39141;BME280;24875;48.436;10.298;2024-01-15T04:14:37;95121.63;;;-0.44;100.00
39141;BME280;24875;48.436;10.298;2024-01-15T04:17:04;95113.22;;;-0.55;100.00
39141;BME280;24875;48.436;10.298;2024-01-15T04:19:30;95109.28;;;-0.50;100.00
39141;BME280;24875;48.436;10.298;2024-01-15T04:21:57;95111.03;;;-0.50;100.00
39141;BME280;24875;48.436;10.298;2024-01-15T04:24:25;95116.72;;;-0.37;100.00
39141;BME280;24875;48.436;10.298;2024-01-15T04:26:51;95111.00;;;-0.31;100.00
39141;BME280;24875;48.436;10.298;2024-01-15T04:29:18;95116.31;;;-0.42;100.00
39141;BME280;24875;48.436;10.298;2024-01-15T04:31:44;95107.22;;;-0.46;100.00
39141;BME280;24875;48.436;10.298;2024-01-15T04:34:11;95107.72;;;-0.33;100.00
39141;BME280;24875;48.436;10.298;2024-01-15T04:36:39;95106.34;;;-0.18;100.00
39141;BME280;24875;48.436;10.298;2024-01-15T04:39:05;95106.03;;;-0.15;100.00
39141;BME280;24875;48.436;10.298;2024-01-15T04:41:34;95100.22;;;-0.17;100.00
39141;BME280;24875;48.436;10.298;2024-01-15T04:44:00;95099.53;;;-0.19;100.00
39141;BME280;24875;48.436;10.298;2024-01-15T04:46:27;95102.50;;;-0.05;100.00
39141;BME280;24875;48.436;10.298;2024-01-15T04:48:53;95095.25;;;-0.02;100.00
39141;BME280;24875;48.436;10.298;2024-01-15T04:51:20;95098.41;;;-0.07;100.00
39141;BME280;24875;48.436;10.298;2024-01-15T04:53:46;95094.41;;;0.07;100.00
39141;BME280;24875;48.436;10.298;2024-01-15T04:56:12;95090.47;;;0.03;100.00
39141;BME280;24875;48.436;10.298;2024-01-15T04:58:40;95087.31;;;0.09;100.00
39141;BME280;24875;48.436;10.298;2024-01-15T05:01:07;95090.47;;;0.03;100.00
39141;BME280;24875;48.436;10.298;2024-01-15T05:03:35;95079.16;;;0.04;100.00
39141;BME280;24875;48.436;10.298;2024-01-15T05:06:01;95080.09;;;0.03;100.00
39141;BME280;24875;48.436;10.298;2024-01-15T05:08:28;95088.50;;;0.15;100.00
39141;BME280;24875;48.436;10.298;2024-01-15T05:10:54;95087.78;;;-0.04;100.00
39141;BME280;24875;48.436;10.298;2024-01-15T05:13:21;95079.00;;;0.06;100.00
39141;BME280;24875;48.436;10.298;2024-01-15T05:15:49;95085.78;;;0.16;100.00
39141;BME280;24875;48.436;10.298;2024-01-15T05:18:16;95079.00;;;0.15;100.00
39141;BME280;24875;48.436;10.298;2024-01-15T05:20:42;95078.16;;;0.15;100.00
39141;BME280;24875;48.436;10.298;2024-01-15T05:23:09;95079.06;;;-0.03;100.00
39141;BME280;24875;48.436;10.298;2024-01-15T05:25:36;95085.72;;;-0.01;100.00
39141;BME280;24875;48.436;10.298;2024-01-15T05:28:02;95081.66;;;0.23;100.00
39141;BME280;24875;48.436;10.298;2024-01-15T05:30:29;95078.94;;;0.25;100.00
39141;BME280;24875;48.436;10.298;2024-01-15T05:32:57;95072.31;;;0.40;100.00
39141;BME280;24875;48.436;10.298;2024-01-15T05:35:25;95070.63;;;0.21;100.00
39141;BME280;24875;48.436;10.298;2024-01-15T05:37:51;95065.69;;;0.28;100.00
39141;BME280;24875;48.436;10.298;2024-01-15T05:40:18;95066.28;;;0.22;100.00
39141;BME280;24875;48.436;10.298;2024-01-15T05:42:44;95072.81;;;0.16;100.00
39141;BME280;24875;48.436;10.298;2024-01-15T05:45:11;95077.88;;;0.18;100.00
39141;BME280;24875;48.436;10.298;2024-01-15T05:47:37;95074.28;;;0.28;100.00
39141;BME280;24875;48.436;10.298;2024-01-15T05:50:06;95077.91;;;0.35;100.00
39141;BME280;24875;48.436;10.298;2024-01-15T05:52:33;95071.25;;;0.33;100.00
39141;BME280;24875;48.436;10.298;2024-01-15T05:54:59;95068.97;;;0.30;100.00
39141;BME280;24875;48.436;10.298;2024-01-15T05:57:26;95076.28;;;0.34;100.00
39141;BME280;24875;48.436;10.298;2024-01-15T05:59:53;95077.13;;;0.35;100.00
39141;BME280;24875;48.436;10.298;2024-01-15T06:02:19;95082.69;;;0.40;100.00
39141;BME280;24875;48.436;10.298;2024-01-15T06:04:46;95092.81;;;0.33;100.00
39141;BME280;24875;48.436;10.298;2024-01-15T06:07:14;95083.97;;;0.53;100.00
39141;BME280;24875;48.436;10.298;2024-01-15T06:09:40;95083.00;;;0.27;100.00
39141;BME280;24875;48.436;10.298;2024-01-15T06:12:07;95072.31;;;0.40;100.00
39141;BME280;24875;48.436;10.298;2024-01-15T06:14:34;95072.31;;;0.40;100.00
39141;BME280;24875;48.436;10.298;2024-01-15T06:17:01;95074.75;;;0.41;100.00
39141;BME280;24875;48.436;10.298;2024-01-15T06:19:28;95071.97;;;0.52;100.00
39141;BME280;24875;48.436;10.298;2024-01-15T06:21:54;95070.53;;;0.40;100.00
39141;BME280;24875;48.436;10.298;2024-01-15T06:24:22;95065.59;;;0.47;100.00
39141;BME280;24875;48.436;10.298;2024-01-15T06:26:48;95070.91;;;0.45;100.00
39141;BME280;24875;48.436;10.298;2024-01-15T06:29:15;95066.03;;;0.42;100.00
39141;BME280;24875;48.436;10.298;2024-01-15T06:31:42;95068.09;;;0.39;100.00
39141;BME280;24875;48.436;10.298;2024-01-15T06:34:08;95071.34;;;0.41;100.00
39141;BME280;24875;48.436;10.298;2024-01-15T06:36:35;95068.47;;;0.44;100.00
39141;BME280;24875;48.436;10.298;2024-01-15T06:39:02;95065.50;;;0.39;100.00
39141;BME280;24875;48.436;10.298;2024-01-15T06:41:29;95060.63;;;0.53;100.00
39141;BME280;24875;48.436;10.298;2024-01-15T06:43:56;95058.25;;;0.42;100.00
39141;BME280;24875;48.436;10.298;2024-01-15T06:46:23;95055.19;;;0.56;100.00
39141;BME280;24875;48.436;10.298;2024-01-15T06:48:49;95067.38;;;0.46;100.00
39141;BME280;24875;48.436;10.298;2024-01-15T06:51:16;95056.13;;;0.55;100.00
39141;BME280;24875;48.436;10.298;2024-01-15T06:53:42;95051.81;;;0.46;100.00
39141;BME280;24875;48.436;10.298;2024-01-15T06:56:09;95052.09;;;0.43;100.00
39141;BME280;24875;48.436;10.298;2024-01-15T06:58:37;95047.09;;;0.59;100.00
39141;BME280;24875;48.436;10.298;2024-01-15T07:01:03;95039.63;;;0.56;100.00
39141;BME280;24875;48.436;10.298;2024-01-15T07:03:30;95041.72;;;0.43;100.00
39141;BME280;24875;48.436;10.298;2024-01-15T07:05:57;95042.50;;;0.53;100.00
39141;BME280;24875;48.436;10.298;2024-01-15T07:08:23;95041.53;;;0.54;100.00
39141;BME280;24875;48.436;10.298;2024-01-15T07:10:50;95039.97;;;0.61;100.00
39141;BME280;24875;48.436;10.298;2024-01-15T07:13:16;95044.53;;;0.76;100.00
39141;BME280;24875;48.436;10.298;2024-01-15T07:15:44;95045.00;;;0.89;100.00
39141;BME280;24875;48.436;10.298;2024-01-15T07:18:11;95053.44;;;0.74;100.00
39141;BME280;24875;48.436;10.298;2024-01-15T07:20:37;95046.69;;;0.81;100.00
39141;BME280;24875;48.436;10.298;2024-01-15T07:23:04;95048.47;;;0.80;100.00
39141;BME280;24875;48.436;10.298;2024-01-15T07:25:30;95052.94;;;0.61;100.00
39141;BME280;24875;48.436;10.298;2024-01-15T07:27:57;95051.72;;;0.65;100.00
39141;BME280;24875;48.436;10.298;2024-01-15T07:30:24;95047.94;;;0.77;100.00
39141;BME280;24875;48.436;10.298;2024-01-15T07:32:52;95056.25;;;0.80;100.00
39141;BME280;24875;48.436;10.298;2024-01-15T07:35:19;95039.97;;;0.61;100.00
39141;BME280;24875;48.436;10.298;2024-01-15T07:37:45;95051.00;;;0.46;100.00
39141;BME280;24875;48.436;10.298;2024-01-15T07:40:12;95043.25;;;0.63;100.00
39141;BME280;24875;48.436;10.298;2024-01-15T07:42:38;95042.06;;;0.58;100.00
39141;BME280;24875;48.436;10.298;2024-01-15T07:45:05;95033.41;;;0.66;100.00
39141;BME280;24875;48.436;10.298;2024-01-15T07:47:32;95037.38;;;0.61;100.00
39141;BME280;24875;48.436;10.298;2024-01-15T07:50:00;95047.03;;;0.68;100.00
39141;BME280;24875;48.436;10.298;2024-01-15T07:52:26;95047.50;;;0.64;100.00
39141;BME280;24875;48.436;10.298;2024-01-15T07:54:53;95052.28;;;0.59;100.00
39141;BME280;24875;48.436;10.298;2024-01-15T07:57:20;95048.13;;;0.66;100.00
39141;BME280;24875;48.436;10.298;2024-01-15T07:59:46;95049.41;;;0.62;100.00
39141;BME280;24875;48.436;10.298;2024-01-15T08:02:13;95049.69;;;0.59;100.00
39141;BME280;24875;48.436;10.298;2024-01-15T08:04:40;95046.22;;;0.68;100.00
39141;BME280;24875;48.436;10.298;2024-01-15T08:07:08;95050.44;;;0.86;100.00
39141;BME280;24875;48.436;10.298;2024-01-15T08:09:34;95040.81;;;0.61;100.00
39141;BME280;24875;48.436;10.298;2024-01-15T08:12:00;95038.44;;;0.68;100.00
39141;BME280;24875;48.436;10.298;2024-01-15T08:14:27;95049.34;;;0.71;100.00
39141;BME280;24875;48.436;10.298;2024-01-15T08:16:54;95054.38;;;0.73;100.00
39141;BME280;24875;48.436;10.298;2024-01-15T08:19:20;95056.53;;;0.77;100.00
39141;BME280;24875;48.436;10.298;2024-01-15T08:21:47;95061.88;;;0.93;100.00
39141;BME280;24875;48.436;10.298;2024-01-15T08:24:15;95063.88;;;1.17;100.00
39141;BME280;24875;48.436;10.298;2024-01-15T08:26:42;95068.03;;;1.10;100.00
39141;BME280;24875;48.436;10.298;2024-01-15T08:29:09;95066.59;;;0.98;100.00
39141;BME280;24875;48.436;10.298;2024-01-15T08:31:35;95066.03;;;1.04;100.00
39141;BME280;24875;48.436;10.298;2024-01-15T08:34:02;95064.59;;;1.09;100.00
39141;BME280;24875;48.436;10.298;2024-01-15T08:36:30;95055.22;;;0.91;100.00
39141;BME280;24875;48.436;10.298;2024-01-15T08:38:56;95055.66;;;1.04;100.00
39141;BME280;24875;48.436;10.298;2024-01-15T08:41:24;95053.81;;;1.14;100.00
39141;BME280;24875;48.436;10.298;2024-01-15T08:43:51;95062.09;;;1.00;100.00
39141;BME280;24875;48.436;10.298;2024-01-15T08:46:18;95054.31;;;1.00;100.00
39141;BME280;24875;48.436;10.298;2024-01-15T08:48:44;95057.44;;;1.03;100.00
39141;BME280;24875;48.436;10.298;2024-01-15T08:51:12;95061.94;;;1.19;100.00
39141;BME280;24875;48.436;10.298;2024-01-15T08:53:38;95066.41;;;1.09;100.00
39141;BME280;24875;48.436;10.298;2024-01-15T08:56:05;95069.78;;;1.26;100.00
39141;BME280;24875;48.436;10.298;2024-01-15T08:58:35;95052.75;;;1.41;100.00
39141;BME280;24875;48.436;10.298;2024-01-15T09:01:01;95044.31;;;1.47;100.00
39141;BME280;24875;48.436;10.298;2024-01-15T09:03:28;95039.97;;;1.48;100.00
39141;BME280;24875;48.436;10.298;2024-01-15T09:05:55;95037.03;;;1.68;100.00
39141;BME280;24875;48.436;10.298;2024-01-15T09:08:21;95030.88;;;1.26;100.00
39141;BME280;24875;48.436;10.298;2024-01-15T09:10:48;95031.16;;;1.41;100.00
39141;BME280;24875;48.436;10.298;2024-01-15T09:13:14;95023.00;;;1.36;100.00
39141;BME280;24875;48.436;10.298;2024-01-15T09:15:43;95035.63;;;1.56;100.00
39141;BME280;24875;48.436;10.298;2024-01-15T09:18:10;95026.28;;;1.63;100.00
39141;BME280;24875;48.436;10.298;2024-01-15T09:20:36;95026.66;;;1.68;100.00
39141;BME280;24875;48.436;10.298;2024-01-15T09:23:03;95018.28;;;1.82;100.00
39141;BME280;24875;48.436;10.298;2024-01-15T09:25:30;95011.09;;;1.76;100.00
39141;BME280;24875;48.436;10.298;2024-01-15T09:27:56;95010.25;;;2.01;100.00
39141;BME280;24875;48.436;10.298;2024-01-15T09:30:23;95026.66;;;2.01;100.00
39141;BME280;24875;48.436;10.298;2024-01-15T09:32:51;95029.47;;;1.82;100.00
39141;BME280;24875;48.436;10.298;2024-01-15T09:35:18;95039.91;;;1.90;100.00
39141;BME280;24875;48.436;10.298;2024-01-15T09:37:44;95039.59;;;1.93;100.00
39141;BME280;24875;48.436;10.298;2024-01-15T09:40:12;95037.78;;;2.19;99.00
39141;BME280;24875;48.436;10.298;2024-01-15T09:42:40;95036.06;;;2.02;98.77
39141;BME280;24875;48.436;10.298;2024-01-15T09:45:08;95025.75;;;2.18;97.75
39141;BME280;24875;48.436;10.298;2024-01-15T09:47:35;95023.03;;;2.28;96.95
39141;BME280;24875;48.436;10.298;2024-01-15T09:50:05;95017.78;;;2.12;98.79
39141;BME280;24875;48.436;10.298;2024-01-15T09:52:32;95014.78;;;1.99;96.92
39141;BME280;24875;48.436;10.298;2024-01-15T09:55:01;95016.66;;;2.14;96.12
39141;BME280;24875;48.436;10.298;2024-01-15T09:57:28;95016.63;;;2.06;95.50
39141;BME280;24875;48.436;10.298;2024-01-15T09:59:57;95007.38;;;2.12;96.38
39141;BME280;24875;48.436;10.298;2024-01-15T10:02:25;95011.69;;;1.95;96.30
39141;BME280;24875;48.436;10.298;2024-01-15T10:04:52;94994.41;;;2.20;95.28
39141;BME280;24875;48.436;10.298;2024-01-15T10:07:21;94990.25;;;2.27;94.70
39141;BME280;24875;48.436;10.298;2024-01-15T10:09:49;94990.50;;;2.16;94.61
39141;BME280;24875;48.436;10.298;2024-01-15T10:12:15;94985.50;;;2.30;92.10
39141;BME280;24875;48.436;10.298;2024-01-15T10:14:43;94985.22;;;2.33;92.24
39141;BME280;24875;48.436;10.298;2024-01-15T10:17:13;94980.41;;;2.62;92.10
39141;BME280;24875;48.436;10.298;2024-01-15T10:19:40;94987.00;;;2.33;91.26
39141;BME280;24875;48.436;10.298;2024-01-15T10:22:08;94983.94;;;2.37;91.37
39141;BME280;24875;48.436;10.298;2024-01-15T10:24:36;94977.78;;;2.54;92.87
39141;BME280;24875;48.436;10.298;2024-01-15T10:27:06;94985.25;;;2.49;92.39
39141;BME280;24875;48.436;10.298;2024-01-15T10:29:33;94981.34;;;2.37;92.17
39141;BME280;24875;48.436;10.298;2024-01-15T10:32:00;94982.31;;;2.52;93.04
39141;BME280;24875;48.436;10.298;2024-01-15T10:34:27;94980.22;;;2.47;93.45
39141;BME280;24875;48.436;10.298;2024-01-15T10:36:54;94978.59;;;2.46;93.04
39141;BME280;24875;48.436;10.298;2024-01-15T10:39:21;94973.00;;;2.26;94.46
39141;BME280;24875;48.436;10.298;2024-01-15T10:41:48;94964.59;;;2.40;95.22
39141;BME280;24875;48.436;10.298;2024-01-15T10:44:16;94960.22;;;2.40;94.47
39141;BME280;24875;48.436;10.298;2024-01-15T10:46:43;94948.34;;;2.38;96.42
39141;BME280;24875;48.436;10.298;2024-01-15T10:49:11;94939.25;;;2.41;95.87
39141;BME280;24875;48.436;10.298;2024-01-15T10:51:38;94938.28;;;2.35;94.78
39141;BME280;24875;48.436;10.298;2024-01-15T10:54:05;94924.00;;;2.54;94.58
39141;BME280;24875;48.436;10.298;2024-01-15T10:56:32;94925.97;;;2.44;94.89
39141;BME280;24875;48.436;10.298;2024-01-15T10:59:02;94918.16;;;2.60;93.76
39141;BME280;24875;48.436;10.298;2024-01-15T11:01:30;94917.53;;;2.58;94.81
39141;BME280;24875;48.436;10.298;2024-01-15T11:03:57;94914.25;;;2.72;93.30
39141;BME280;24875;48.436;10.298;2024-01-15T11:06:24;94915.09;;;3.04;92.95
39141;BME280;24875;48.436;10.298;2024-01-15T11:08:52;94920.00;;;2.92;92.76
39141;BME280;24875;48.436;10.298;2024-01-15T11:11:21;94918.50;;;3.05;93.24
39141;BME280;24875;48.436;10.298;2024-01-15T11:13:48;94914.91;;;2.90;93.33
39141;BME280;24875;48.436;10.298;2024-01-15T11:16:18;94912.50;;;2.97;92.93
39141;BME280;24875;48.436;10.298;2024-01-15T11:19:01;94904.69;;;3.04;91.85
39141;BME280;24875;48.436;10.298;2024-01-15T11:21:28;94907.78;;;2.84;92.29
39141;BME280;24875;48.436;10.298;2024-01-15T11:23:57;94911.69;;;2.96;92.70
39141;BME280;24875;48.436;10.298;2024-01-15T11:26:35;94910.84;;;3.11;91.40
39141;BME280;24875;48.436;10.298;2024-01-15T11:29:03;94918.50;;;2.97;89.55
39141;BME280;24875;48.436;10.298;2024-01-15T11:32:02;94911.16;;;3.16;89.49
39141;BME280;24875;48.436;10.298;2024-01-15T11:34:52;94909.88;;;3.20;88.53
39141;BME280;24875;48.436;10.298;2024-01-15T11:37:20;94908.22;;;3.19;90.04
39141;BME280;24875;48.436;10.298;2024-01-15T11:39:51;94907.94;;;3.06;88.53
39141;BME280;24875;48.436;10.298;2024-01-15T11:42:16;94905.34;;;3.14;88.25
39141;BME280;24875;48.436;10.298;2024-01-15T11:44:44;94905.16;;;3.16;88.57
39141;BME280;24875;48.436;10.298;2024-01-15T11:47:12;94905.00;;;3.17;88.34
39141;BME280;24875;48.436;10.298;2024-01-15T11:49:59;94895.69;;;3.31;88.17
39141;BME280;24875;48.436;10.298;2024-01-15T11:52:32;94903.81;;;3.36;87.74
39141;BME280;24875;48.436;10.298;2024-01-15T11:55:01;94890.84;;;3.20;87.78
39141;BME280;24875;48.436;10.298;2024-01-15T11:57:40;94888.19;;;3.36;87.80
39141;BME280;24875;48.436;10.298;2024-01-15T12:00:08;94896.84;;;3.20;90.06
39141;BME280;24875;48.436;10.298;2024-01-15T12:02:36;94900.75;;;3.32;90.44
39141;BME280;24875;48.436;10.298;2024-01-15T12:05:04;94899.78;;;3.17;92.75
39141;BME280;24875;48.436;10.298;2024-01-15T12:07:31;94895.41;;;3.02;95.00
39141;BME280;24875;48.436;10.298;2024-01-15T12:09:57;94884.03;;;3.03;96.21
39141;BME280;24875;48.436;10.298;2024-01-15T12:12:29;94899.94;;;3.24;96.91
39141;BME280;24875;48.436;10.298;2024-01-15T12:14:58;94902.72;;;3.06;97.49
39141;BME280;24875;48.436;10.298;2024-01-15T12:17:25;94899.63;;;3.11;97.85
39141;BME280;24875;48.436;10.298;2024-01-15T12:19:53;94901.28;;;3.12;99.28
39141;BME280;24875;48.436;10.298;2024-01-15T12:22:21;94889.53;;;3.08;100.00
39141;BME280;24875;48.436;10.298;2024-01-15T12:24:47;94884.97;;;3.18;100.00
39141;BME280;24875;48.436;10.298;2024-01-15T12:27:14;94880.13;;;2.99;100.00
39141;BME280;24875;48.436;10.298;2024-01-15T12:29:40;94876.25;;;3.03;100.00
39141;BME280;24875;48.436;10.298;2024-01-15T12:32:07;94885.31;;;2.99;99.83
39141;BME280;24875;48.436;10.298;2024-01-15T12:34:33;94886.97;;;3.00;96.02
39141;BME280;24875;48.436;10.298;2024-01-15T12:37:01;94875.59;;;2.93;96.99
39141;BME280;24875;48.436;10.298;2024-01-15T12:39:28;94886.50;;;2.73;98.18
39141;BME280;24875;48.436;10.298;2024-01-15T12:41:55;94878.53;;;2.74;98.54
39141;BME280;24875;48.436;10.298;2024-01-15T12:44:21;94870.22;;;2.87;97.19
39141;BME280;24875;48.436;10.298;2024-01-15T12:46:48;94868.41;;;2.95;97.17